Airfield :
LOGIN :

Register | Disclaimer

   EN    FR    IT 

 










Legend :    VFR   Marginal VFR   IFR   Intensive IFR   Very Intensive IFR
Visi :
Ceiling :
>= 8 km
>= 3000ft
5 to 8 km
1000 to 3000 ft
1500m to 5 km
500 to 1000 ft
800 to 1500m
200 to 500 ft
< 800m
< 200 ft
Symbols :   Thunderstorms  Fog  Heavy snow  Heavy precipitations  Wind > 20 kt
SIGMETs :     Misc.  Thunderstorms  Icing  Turbulence  Mountain Waves  Volcanic Ashes






- Airport Elevation : 2031 ft


LEGT - Madrid Getafe

CURRENT METAR :
  • 221000Z 28005KT 9999 BKN015 13/09 Q1014

EXPIRED METARs :
  • 220930Z 28005KT 9999 BKN015 13/10 Q1014
  • 220900Z 28004KT 9999 BKN010 13/10 Q1014
  • 220830Z 29003KT 9999 SCT014 12/10 Q1013
  • 220800Z 29003KT 9999 SCT009 12/10 Q1013
  • 220730Z 26004KT 9999 FEW007 SCT028 BKN045 11/10 Q1013

TAF TAF LEGT
Valid from the 22 at 06:00 until the 23 at 06:00 UTC


220500Z 2206/2306 22006KT 9999 BKN015 TX18/2215Z TN08/2306Z
PROB30
TEMPO 2206/2215 4000 RA SHRA BKN005 SCT035TCU



MET'MAP, your aeronautical weather chart ! - Copyright ORBIFLY December 2007 - Disclaimer

ORBIFLY MET'MAP TEAM :

Programming & Development : Alexandra Zaïnal
Concept & original design : Baudouin d'Aumeries
Assistance for programming : Marc-Olivier Méhu
Technical & hardware support : Manuel Goepfert

Contact : metmap@orbifly.com




SOURCES & CREDITS :

   NOAA